createdAt,value
2022-08-24T00:00:23.349Z,71.03
2022-08-24T00:02:50.370Z,71.36
2022-08-24T00:05:21.287Z,71.56
2022-08-24T00:07:49.899Z,71.36
2022-08-24T00:10:18.125Z,71.54
2022-08-24T00:12:44.882Z,71.49
2022-08-24T00:15:13.879Z,71.65
2022-08-24T00:17:40.834Z,71.65
2022-08-24T00:20:09.855Z,71.90
2022-08-24T00:22:36.718Z,71.47
2022-08-24T00:25:04.653Z,71.38
2022-08-24T00:27:31.445Z,71.64
2022-08-24T00:29:58.149Z,71.47
2022-08-24T00:32:25.034Z,71.27
2022-08-24T00:34:59.268Z,71.42
2022-08-24T00:37:28.844Z,71.49
2022-08-24T00:39:56.266Z,71.38
2022-08-24T00:42:24.502Z,71.58
2022-08-24T00:44:52.091Z,71.84
2022-08-24T00:47:22.519Z,71.91
2022-08-24T00:49:55.925Z,71.67
2022-08-24T00:52:33.528Z,71.50
2022-08-24T00:55:23.478Z,71.63
2022-08-24T00:57:53.510Z,71.56
2022-08-24T01:00:24.337Z,71.71
2022-08-24T01:02:57.328Z,71.89
2022-08-24T01:05:24.845Z,71.57
2022-08-24T01:07:51.602Z,71.52
2022-08-24T01:10:21.623Z,71.64
2022-08-24T01:12:59.734Z,71.72
2022-08-24T01:15:28.717Z,71.48
2022-08-24T01:18:14.711Z,71.91
2022-08-24T01:20:44.113Z,71.90
2022-08-24T01:23:37.066Z,71.91
2022-08-24T01:26:05.237Z,72.03
2022-08-24T01:28:32.282Z,71.69
2022-08-24T01:30:59.678Z,71.76
2022-08-24T01:33:29.611Z,72.00
2022-08-24T01:36:13.529Z,71.82
2022-08-24T01:38:40.411Z,71.73
2022-08-24T01:41:07.516Z,71.99
2022-08-24T01:43:37.288Z,72.21
2022-08-24T01:46:06.172Z,72.23
2022-08-24T01:48:33.436Z,72.09
2022-08-24T01:51:00.178Z,71.87
2022-08-24T01:53:27.180Z,71.82
2022-08-24T01:55:54.201Z,71.89
2022-08-24T01:58:21.658Z,72.14
2022-08-24T02:00:48.730Z,72.01
2022-08-24T02:03:15.846Z,72.29
2022-08-24T02:05:47.145Z,72.26
2022-08-24T02:08:15.065Z,72.18
2022-08-24T02:10:41.825Z,71.93
2022-08-24T02:13:16.683Z,71.70
2022-08-24T02:15:43.464Z,72.13
2022-08-24T02:18:15.388Z,72.13
2022-08-24T02:20:43.506Z,72.45
2022-08-24T02:23:10.255Z,72.45
2022-08-24T02:25:37.063Z,72.30
2022-08-24T02:28:04.391Z,72.51
2022-08-24T02:30:31.851Z,72.48
2022-08-24T02:32:59.312Z,72.29
2022-08-24T02:35:27.170Z,72.70
2022-08-24T02:37:53.926Z,72.66
2022-08-24T02:40:21.047Z,72.33
2022-08-24T02:42:48.857Z,72.73
2022-08-24T02:45:15.600Z,72.74
2022-08-24T02:47:42.570Z,72.75
2022-08-24T02:50:11.551Z,72.92
2022-08-24T02:52:39.638Z,72.96
2022-08-24T02:55:09.432Z,72.75
2022-08-24T02:57:38.805Z,72.74
2022-08-24T03:00:10.631Z,72.73
2022-08-24T03:02:40.391Z,73.22
2022-08-24T03:05:08.671Z,73.08
2022-08-24T03:07:36.199Z,73.70
2022-08-24T03:10:05.140Z,74.09
2022-08-24T03:12:32.131Z,74.46
2022-08-24T03:14:59.491Z,74.64
2022-08-24T03:17:26.200Z,75.08
2022-08-24T03:19:52.909Z,75.39
2022-08-24T03:22:20.482Z,75.83
2022-08-24T03:24:47.229Z,75.98
2022-08-24T03:27:15.099Z,75.87
2022-08-24T03:29:41.841Z,76.41
2022-08-24T03:32:08.852Z,76.77
2022-08-24T03:34:36.244Z,76.92
2022-08-24T03:37:03.066Z,77.26
2022-08-24T03:39:29.940Z,76.99
2022-08-24T03:41:57.234Z,77.15
2022-08-24T03:44:26.221Z,77.07
2022-08-24T03:46:54.390Z,76.83
2022-08-24T03:49:23.259Z,76.87
2022-08-24T03:51:50.635Z,76.65
2022-08-24T03:54:20.705Z,76.53
2022-08-24T03:56:47.785Z,76.52
2022-08-24T03:59:18.947Z,76.77
2022-08-24T04:01:48.105Z,76.38
2022-08-24T04:04:15.259Z,76.58
2022-08-24T04:06:44.629Z,76.45
2022-08-24T04:09:11.991Z,76.49
2022-08-24T04:11:41.725Z,76.74
2022-08-24T04:14:22.307Z,77.15
2022-08-24T04:17:04.740Z,77.17
2022-08-24T04:19:36.477Z,76.74
2022-08-24T04:22:03.655Z,76.76
2022-08-24T04:24:30.475Z,76.77
2022-08-24T04:26:57.236Z,76.95
2022-08-24T04:29:25.711Z,77.14
2022-08-24T04:31:53.667Z,77.29
2022-08-24T04:34:21.488Z,77.57
2022-08-24T04:36:48.960Z,78.41
2022-08-24T04:39:15.746Z,78.50
2022-08-24T04:41:45.259Z,78.49
2022-08-24T04:44:14.424Z,78.59
2022-08-24T04:46:41.164Z,78.59
2022-08-24T04:49:09.013Z,78.52
2022-08-24T04:51:36.495Z,78.74
2022-08-24T04:54:05.199Z,78.78
2022-08-24T04:56:31.970Z,78.72
2022-08-24T04:58:59.629Z,78.81
2022-08-24T05:01:29.085Z,79.08
2022-08-24T05:03:57.483Z,78.94
2022-08-24T05:06:27.319Z,78.60
2022-08-24T05:08:54.217Z,78.20
2022-08-24T05:11:22.234Z,78.50
2022-08-24T05:13:52.170Z,78.76
2022-08-24T05:16:18.936Z,79.05
2022-08-24T05:18:47.016Z,78.89
2022-08-24T05:21:17.100Z,79.00
2022-08-24T05:23:45.231Z,79.27
2022-08-24T05:26:31.815Z,78.88
2022-08-24T05:29:01.922Z,78.94
2022-08-24T05:31:44.348Z,78.79
2022-08-24T05:34:12.585Z,78.90
2022-08-24T05:36:40.999Z,78.85
2022-08-24T05:39:13.956Z,78.94
2022-08-24T05:41:46.379Z,78.85
2022-08-24T05:44:19.812Z,78.74
2022-08-24T05:46:47.423Z,78.48
2022-08-24T05:49:14.305Z,78.37
2022-08-24T05:51:42.875Z,78.49
2022-08-24T05:54:13.872Z,78.24
2022-08-24T05:56:52.860Z,78.50
2022-08-24T05:59:21.008Z,78.83
2022-08-24T06:01:48.259Z,78.77
2022-08-24T06:04:17.945Z,78.71
2022-08-24T06:06:48.713Z,78.98
2022-08-24T06:09:16.348Z,79.32
2022-08-24T06:11:47.798Z,78.97
2022-08-24T06:14:17.887Z,78.85
2022-08-24T06:16:57.259Z,79.46
2022-08-24T06:19:24.571Z,79.44
2022-08-24T06:21:53.950Z,79.59
2022-08-24T06:24:45.064Z,79.44
2022-08-24T06:27:22.613Z,79.34
2022-08-24T06:29:53.958Z,79.42
2022-08-24T06:32:44.280Z,79.51
2022-08-24T06:35:20.898Z,80.12
2022-08-24T06:37:48.692Z,79.78
2022-08-24T06:40:15.668Z,79.77
2022-08-24T06:42:42.463Z,79.35
2022-08-24T06:45:22.422Z,79.26
2022-08-24T06:47:50.219Z,79.24
2022-08-24T06:50:18.349Z,79.44
2022-08-24T06:52:48.959Z,78.58
2022-08-24T06:55:15.814Z,78.40
2022-08-24T06:57:43.079Z,78.21
2022-08-24T07:00:11.145Z,79.68
2022-08-24T07:02:38.099Z,78.91
2022-08-24T07:05:05.889Z,79.13
2022-08-24T07:07:51.399Z,78.31
2022-08-24T07:10:18.289Z,78.45
2022-08-24T07:12:50.876Z,78.15
2022-08-24T07:15:19.541Z,77.19
2022-08-24T07:17:57.764Z,77.21
2022-08-24T07:20:25.138Z,77.35
2022-08-24T07:23:15.180Z,76.83
2022-08-24T07:25:46.199Z,76.07
2022-08-24T07:28:16.265Z,76.25
2022-08-24T07:30:43.998Z,75.78
2022-08-24T07:33:12.810Z,75.93
2022-08-24T07:35:41.196Z,75.79
2022-08-24T07:38:08.425Z,76.89
2022-08-24T07:40:55.744Z,75.93
2022-08-24T07:43:22.675Z,75.62
2022-08-24T07:45:51.886Z,75.95
2022-08-24T07:48:19.373Z,75.71
2022-08-24T07:50:47.045Z,74.91
2022-08-24T07:53:18.218Z,74.61
2022-08-24T07:55:56.760Z,74.89
2022-08-24T07:58:24.786Z,74.75
2022-08-24T08:00:51.779Z,75.07
2022-08-24T08:03:19.985Z,75.58
2022-08-24T08:05:46.726Z,74.47
2022-08-24T08:08:13.683Z,74.16
2022-08-24T08:10:41.227Z,73.31
2022-08-24T08:13:08.199Z,73.41
2022-08-24T08:15:36.351Z,71.57
2022-08-24T08:18:09.556Z,69.36
2022-08-24T08:20:40.877Z,67.92
2022-08-24T08:23:26.726Z,67.62
2022-08-24T08:26:17.391Z,67.35
2022-08-24T08:29:03.200Z,67.38
2022-08-24T08:31:32.309Z,67.54
2022-08-24T08:34:01.227Z,66.99
2022-08-24T08:36:28.232Z,66.50
2022-08-24T08:38:55.303Z,65.84
2022-08-24T08:41:44.221Z,66.60
2022-08-24T08:44:35.754Z,67.53
2022-08-24T08:47:33.956Z,66.19
2022-08-24T08:50:22.046Z,65.39
2022-08-24T08:53:11.879Z,65.17
2022-08-24T08:55:51.598Z,65.89
2022-08-24T08:58:32.906Z,66.20
2022-08-24T09:01:13.192Z,64.22
2022-08-24T09:04:01.594Z,61.71
2022-08-24T09:06:58.629Z,61.23
2022-08-24T09:09:35.074Z,60.41
2022-08-24T09:12:21.159Z,61.02
2022-08-24T09:15:17.568Z,62.47
2022-08-24T09:18:06.771Z,60.48
2022-08-24T09:21:03.743Z,60.50
2022-08-24T09:24:00.542Z,60.79
2022-08-24T09:26:38.592Z,60.52
2022-08-24T09:29:17.058Z,61.09
2022-08-24T09:32:19.016Z,60.43
2022-08-24T09:34:46.313Z,59.69
2022-08-24T09:37:22.138Z,60.13
2022-08-24T09:40:05.719Z,60.37
2022-08-24T09:42:39.043Z,60.21
2022-08-24T09:45:37.917Z,59.42
2022-08-24T09:48:37.366Z,60.25
2022-08-24T09:51:18.991Z,60.33
2022-08-24T09:54:04.640Z,59.99
2022-08-24T09:57:12.220Z,60.13
2022-08-24T10:00:10.809Z,60.39
2022-08-24T10:02:55.924Z,60.69
2022-08-24T10:05:44.611Z,59.75
2022-08-24T10:08:20.458Z,59.87
2022-08-24T10:11:15.644Z,58.55
2022-08-24T10:14:20.272Z,58.53
2022-08-24T10:16:53.352Z,58.63
2022-08-24T10:19:24.252Z,58.97
2022-08-24T10:21:57.421Z,57.87
2022-08-24T10:24:30.302Z,56.84
2022-08-24T10:27:34.658Z,55.58
2022-08-24T10:30:30.671Z,55.54
2022-08-24T10:33:06.420Z,51.45
2022-08-24T10:35:45.825Z,50.10
2022-08-24T10:38:51.289Z,49.89
2022-08-24T10:41:41.715Z,48.67
2022-08-24T10:44:27.113Z,49.49
2022-08-24T10:46:59.765Z,49.68
2022-08-24T10:49:29.441Z,50.75
2022-08-24T10:52:14.447Z,51.86
2022-08-24T10:54:41.357Z,51.59
2022-08-24T10:57:28.611Z,52.42
2022-08-24T10:59:59.346Z,52.75
2022-08-24T11:02:38.057Z,52.38
2022-08-24T11:05:10.739Z,52.00
2022-08-24T11:07:38.577Z,51.01
2022-08-24T11:10:09.008Z,49.67
2022-08-24T11:12:38.750Z,48.43
2022-08-24T11:15:28.259Z,46.58
2022-08-24T11:18:03.126Z,45.35
2022-08-24T11:20:36.717Z,41.32
2022-08-24T11:23:07.075Z,40.50
2022-08-24T11:25:36.857Z,37.06
2022-08-24T11:28:17.509Z,37.69
2022-08-24T11:30:44.351Z,35.47
2022-08-24T11:33:29.364Z,35.47
2022-08-24T11:35:56.927Z,35.74
2022-08-24T11:38:34.513Z,34.08
2022-08-24T11:41:20.595Z,34.50
2022-08-24T11:44:07.889Z,34.27
2022-08-24T11:47:00.504Z,34.74
2022-08-24T11:49:54.670Z,35.04
2022-08-24T11:52:58.849Z,36.11
2022-08-24T11:55:45.396Z,36.76
2022-08-24T11:58:32.707Z,36.19
2022-08-24T12:01:07.144Z,34.04
2022-08-24T12:03:33.894Z,32.78
2022-08-24T12:06:32.517Z,32.12
2022-08-24T12:08:59.606Z,31.78
2022-08-24T12:11:53.520Z,31.83
2022-08-24T12:14:33.177Z,30.68
2022-08-24T12:17:10.293Z,31.10
2022-08-24T12:19:48.662Z,30.05
2022-08-24T12:22:16.530Z,29.16
2022-08-24T12:24:52.776Z,29.29
2022-08-24T12:27:26.209Z,28.85
2022-08-24T12:30:05.555Z,26.01
2022-08-24T12:32:49.050Z,26.75
2022-08-24T12:35:32.785Z,25.91
2022-08-24T12:38:13.896Z,26.80
2022-08-24T12:40:44.344Z,27.24
2022-08-24T12:43:26.492Z,27.00
2022-08-24T12:45:56.867Z,28.14
2022-08-24T12:48:39.592Z,27.31
2022-08-24T12:51:06.368Z,27.26
2022-08-24T12:54:08.397Z,28.18
2022-08-24T12:56:54.109Z,28.05
2022-08-24T12:59:20.998Z,30.27
2022-08-24T13:01:58.601Z,29.22
2022-08-24T13:04:28.491Z,29.89
2022-08-24T13:07:12.012Z,31.26
2022-08-24T13:09:40.607Z,31.54
2022-08-24T13:12:38.563Z,31.58
2022-08-24T13:15:26.423Z,30.85
2022-08-24T13:18:01.687Z,31.75
2022-08-24T13:20:38.754Z,30.47
2022-08-24T13:23:07.083Z,30.60
2022-08-24T13:25:52.870Z,30.45
2022-08-24T13:28:25.847Z,31.27
2022-08-24T13:31:02.947Z,30.70
2022-08-24T13:33:32.569Z,31.84
2022-08-24T13:36:21.675Z,32.24
2022-08-24T13:39:21.151Z,34.07
2022-08-24T13:42:12.944Z,34.55
2022-08-24T13:44:48.180Z,35.08
2022-08-24T13:47:24.240Z,36.34
2022-08-24T13:50:26.542Z,37.97
2022-08-24T13:53:05.522Z,38.54
2022-08-24T13:55:39.721Z,39.60
2022-08-24T13:58:13.633Z,39.88
2022-08-24T14:00:52.589Z,40.24
2022-08-24T14:03:19.310Z,40.01
2022-08-24T14:05:50.906Z,40.97
2022-08-24T14:08:30.308Z,42.55
2022-08-24T14:11:00.497Z,41.38
2022-08-24T14:13:46.787Z,40.26
2022-08-24T14:17:17.276Z,40.94
2022-08-24T14:20:09.188Z,41.29
2022-08-24T14:23:01.140Z,40.62
2022-08-24T14:25:33.373Z,39.99
2022-08-24T14:28:00.232Z,40.26
2022-08-24T14:30:27.061Z,40.74
2022-08-24T14:33:00.104Z,40.37
2022-08-24T14:35:29.870Z,40.81
2022-08-24T14:38:10.575Z,41.67
2022-08-24T14:41:04.068Z,41.09
2022-08-24T14:43:35.038Z,41.05
2022-08-24T14:46:18.093Z,42.09
2022-08-24T14:49:10.021Z,42.86
2022-08-24T14:52:04.454Z,43.72
2022-08-24T14:54:38.287Z,44.15
2022-08-24T14:57:29.824Z,42.90
2022-08-24T15:00:24.978Z,44.06
2022-08-24T15:02:51.735Z,44.48
2022-08-24T15:05:25.646Z,44.11
2022-08-24T15:08:02.539Z,43.97
2022-08-24T15:10:39.259Z,43.86
2022-08-24T15:13:28.010Z,44.42
2022-08-24T15:16:03.376Z,43.42
2022-08-24T15:18:42.396Z,44.25
2022-08-24T15:21:21.424Z,44.07
2022-08-24T15:24:09.842Z,42.83
2022-08-24T15:27:01.806Z,42.77
2022-08-24T15:29:31.758Z,43.30
2022-08-24T15:32:16.932Z,43.41
2022-08-24T15:34:55.565Z,44.25
2022-08-24T15:37:34.624Z,45.27
2022-08-24T15:40:04.509Z,44.89
2022-08-24T15:42:34.317Z,45.46
2022-08-24T15:45:02.742Z,45.41
2022-08-24T15:47:38.069Z,45.30
2022-08-24T15:50:08.690Z,46.30
2022-08-24T15:52:44.052Z,46.21
2022-08-24T15:55:35.372Z,44.69
2022-08-24T15:58:25.793Z,45.91
2022-08-24T16:01:19.207Z,45.59
2022-08-24T16:03:50.032Z,46.68
2022-08-24T16:06:21.719Z,46.94
2022-08-24T16:08:58.915Z,47.97
2022-08-24T16:11:38.653Z,47.84
2022-08-24T16:14:08.530Z,46.74
2022-08-24T16:16:40.916Z,47.61
2022-08-24T16:19:19.478Z,46.64
2022-08-24T16:22:07.677Z,47.59
2022-08-24T16:24:37.256Z,47.34
2022-08-24T16:27:13.661Z,48.10
2022-08-24T16:29:42.034Z,49.32
2022-08-24T16:32:22.991Z,49.82
2022-08-24T16:35:09.327Z,47.94
2022-08-24T16:37:36.426Z,49.06
2022-08-24T16:40:10.812Z,48.29
2022-08-24T16:42:37.822Z,47.27
2022-08-24T16:45:08.040Z,47.95
2022-08-24T16:47:34.946Z,48.08
2022-08-24T16:50:02.078Z,47.73
2022-08-24T16:52:28.831Z,48.76
2022-08-24T16:54:55.570Z,49.08
2022-08-24T16:57:29.760Z,49.47
2022-08-24T16:59:56.864Z,49.78
2022-08-24T17:02:25.964Z,50.09
2022-08-24T17:04:54.971Z,50.24
2022-08-24T17:07:24.871Z,50.77
2022-08-24T17:09:52.290Z,51.07
2022-08-24T17:12:19.429Z,51.08
2022-08-24T17:14:46.406Z,51.24
2022-08-24T17:17:15.294Z,51.49
2022-08-24T17:19:43.868Z,51.87
2022-08-24T17:22:15.989Z,51.68
2022-08-24T17:24:43.448Z,52.15
2022-08-24T17:27:10.705Z,54.67
2022-08-24T17:29:37.583Z,55.71
2022-08-24T17:32:05.350Z,56.46
2022-08-24T17:34:32.521Z,57.13
2022-08-24T17:36:59.806Z,57.48
2022-08-24T17:39:28.493Z,57.84
2022-08-24T17:41:56.982Z,57.45
2022-08-24T17:44:26.539Z,57.87
2022-08-24T17:46:55.128Z,57.99
2022-08-24T17:49:22.255Z,58.21
2022-08-24T17:51:49.893Z,58.55
2022-08-24T17:54:17.604Z,58.00
2022-08-24T17:56:46.713Z,58.35
2022-08-24T17:59:23.655Z,58.43
2022-08-24T18:01:56.939Z,58.79
2022-08-24T18:04:27.712Z,58.68
2022-08-24T18:06:56.060Z,58.72
2022-08-24T18:09:38.439Z,58.81
2022-08-24T18:12:07.405Z,59.13
2022-08-24T18:14:34.888Z,59.30
2022-08-24T18:17:05.830Z,59.29
2022-08-24T18:19:33.984Z,60.05
2022-08-24T18:22:01.647Z,60.62
2022-08-24T18:24:32.684Z,60.58
2022-08-24T18:27:02.110Z,60.80
2022-08-24T18:29:37.478Z,61.11
2022-08-24T18:32:04.396Z,61.10
2022-08-24T18:34:31.976Z,61.00
2022-08-24T18:36:58.789Z,60.67
2022-08-24T18:39:25.642Z,61.06
2022-08-24T18:41:53.017Z,61.16
2022-08-24T18:44:21.866Z,60.85
2022-08-24T18:46:49.238Z,61.22
2022-08-24T18:49:17.409Z,61.51
2022-08-24T18:51:45.194Z,61.83
2022-08-24T18:54:21.173Z,61.51
2022-08-24T18:56:48.318Z,61.63
2022-08-24T18:59:16.153Z,62.16
2022-08-24T19:02:03.285Z,61.83
2022-08-24T19:04:33.300Z,62.13
2022-08-24T19:07:01.199Z,62.38
2022-08-24T19:09:33.948Z,62.17
2022-08-24T19:12:01.588Z,62.64
2022-08-24T19:14:28.688Z,62.85
2022-08-24T19:16:55.510Z,62.55
2022-08-24T19:19:22.712Z,62.79
2022-08-24T19:21:49.763Z,62.13
2022-08-24T19:24:18.807Z,62.74
2022-08-24T19:26:45.698Z,62.76
2022-08-24T19:29:12.496Z,62.98
2022-08-24T19:31:39.357Z,63.17
2022-08-24T19:34:06.843Z,62.65
2022-08-24T19:36:33.656Z,62.45
2022-08-24T19:39:00.488Z,62.77
2022-08-24T19:41:36.554Z,62.82
2022-08-24T19:44:27.331Z,63.05
2022-08-24T19:46:55.788Z,63.56
2022-08-24T19:49:23.709Z,63.53
2022-08-24T19:51:51.022Z,63.44
2022-08-24T19:54:17.907Z,63.95
2022-08-24T19:56:45.657Z,64.03
2022-08-24T19:59:27.083Z,64.21
2022-08-24T20:01:54.243Z,64.03
2022-08-24T20:04:21.046Z,64.01
2022-08-24T20:06:48.121Z,63.97
2022-08-24T20:09:15.183Z,64.81
2022-08-24T20:11:42.472Z,64.78
2022-08-24T20:14:09.759Z,64.84
2022-08-24T20:16:42.244Z,64.89
2022-08-24T20:19:11.042Z,64.99
2022-08-24T20:21:38.908Z,64.80
2022-08-24T20:24:06.539Z,65.58
2022-08-24T20:26:39.404Z,65.27
2022-08-24T20:29:06.338Z,65.33
2022-08-24T20:31:33.446Z,65.50
2022-08-24T20:34:00.172Z,65.42
2022-08-24T20:36:29.936Z,65.76
2022-08-24T20:38:58.164Z,65.80
2022-08-24T20:41:26.134Z,65.95
2022-08-24T20:43:53.337Z,66.24
2022-08-24T20:46:20.803Z,66.18
2022-08-24T20:48:55.738Z,66.64
2022-08-24T20:51:24.290Z,66.43
2022-08-24T20:53:51.050Z,66.71
2022-08-24T20:56:33.975Z,66.27
2022-08-24T20:59:06.723Z,66.80
2022-08-24T21:01:33.451Z,67.14
2022-08-24T21:04:04.799Z,67.06
2022-08-24T21:06:33.222Z,67.36
2022-08-24T21:09:00.853Z,67.54
2022-08-24T21:11:27.699Z,67.44
2022-08-24T21:13:54.423Z,67.71
2022-08-24T21:16:21.255Z,68.07
2022-08-24T21:18:48.079Z,68.44
2022-08-24T21:21:14.798Z,68.34
2022-08-24T21:23:41.574Z,68.69
2022-08-24T21:26:10.950Z,68.47
2022-08-24T21:28:40.495Z,68.73
2022-08-24T21:31:07.339Z,68.52
2022-08-24T21:33:53.195Z,68.54
2022-08-24T21:36:21.405Z,68.91
2022-08-24T21:38:48.572Z,69.10
2022-08-24T21:41:15.760Z,69.37
2022-08-24T21:43:42.711Z,69.27
2022-08-24T21:46:09.913Z,70.00
2022-08-24T21:48:36.711Z,69.87
2022-08-24T21:51:03.780Z,69.77
2022-08-24T21:53:30.542Z,70.20
2022-08-24T21:55:57.630Z,70.15
2022-08-24T21:58:24.594Z,70.21
2022-08-24T22:00:51.991Z,69.94
2022-08-24T22:03:19.519Z,69.87
2022-08-24T22:05:46.233Z,69.90
2022-08-24T22:08:12.963Z,70.60
2022-08-24T22:10:39.719Z,70.68
2022-08-24T22:13:07.201Z,70.10
2022-08-24T22:15:34.295Z,70.15
2022-08-24T22:18:01.439Z,70.38
2022-08-24T22:20:28.398Z,70.48
2022-08-24T22:22:55.152Z,70.24
2022-08-24T22:25:21.861Z,70.57
2022-08-24T22:27:48.923Z,70.22
2022-08-24T22:30:17.901Z,70.22
2022-08-24T22:32:46.182Z,70.61
2022-08-24T22:35:13.194Z,70.51
2022-08-24T22:37:39.959Z,70.38
2022-08-24T22:40:07.428Z,70.33
2022-08-24T22:42:39.241Z,70.58
2022-08-24T22:45:06.575Z,70.57
2022-08-24T22:47:33.641Z,70.54
2022-08-24T22:50:00.427Z,70.78
2022-08-24T22:52:27.411Z,70.56
2022-08-24T22:54:58.513Z,70.67
2022-08-24T22:57:26.860Z,70.67
2022-08-24T22:59:54.939Z,70.58
2022-08-24T23:02:22.395Z,71.12
2022-08-24T23:04:50.944Z,70.74
2022-08-24T23:07:18.513Z,71.01
2022-08-24T23:09:46.436Z,71.52
2022-08-24T23:12:19.879Z,71.21
2022-08-24T23:14:46.598Z,71.33
2022-08-24T23:17:14.681Z,71.22
2022-08-24T23:20:00.380Z,71.18
2022-08-24T23:22:35.684Z,71.78
2022-08-24T23:25:03.607Z,71.54
2022-08-24T23:27:37.730Z,71.97
2022-08-24T23:30:07.826Z,72.24
2022-08-24T23:32:34.534Z,72.57
2022-08-24T23:35:01.253Z,72.46
2022-08-24T23:37:28.347Z,72.69
2022-08-24T23:39:55.157Z,72.85
2022-08-24T23:42:21.956Z,72.61
2022-08-24T23:44:48.683Z,73.05
2022-08-24T23:47:15.457Z,72.98
2022-08-24T23:49:42.252Z,73.06
2022-08-24T23:52:08.961Z,73.11
2022-08-24T23:54:53.001Z,73.04
2022-08-24T23:57:19.746Z,72.98
2022-08-24T23:59:46.453Z,73.08
